createdAt,value
2022-10-03T00:02:05.245Z,2.30
2022-10-03T00:04:58.624Z,2.25
2022-10-03T00:07:41.651Z,2.40
2022-10-03T00:10:23.510Z,2.30
2022-10-03T00:13:09.171Z,2.40
2022-10-03T00:15:47.564Z,2.28
2022-10-03T00:18:32.432Z,2.40
2022-10-03T00:21:10.014Z,2.40
2022-10-03T00:23:45.911Z,2.50
2022-10-03T00:26:31.909Z,2.60
2022-10-03T00:29:22.067Z,2.60
2022-10-03T00:32:04.702Z,2.60
2022-10-03T00:34:46.235Z,2.50
2022-10-03T00:37:29.417Z,2.55
2022-10-03T00:40:32.219Z,2.75
2022-10-03T00:43:43.311Z,2.60
2022-10-03T00:46:47.955Z,2.72
2022-10-03T00:49:43.647Z,2.60
2022-10-03T00:52:30.968Z,2.30
2022-10-03T00:55:15.192Z,2.63
2022-10-03T00:58:16.499Z,2.50
2022-10-03T01:00:51.835Z,2.70
2022-10-03T01:03:41.367Z,2.70
2022-10-03T01:06:28.003Z,2.60
2022-10-03T01:09:27.521Z,2.50
2022-10-03T01:12:09.131Z,2.80
2022-10-03T01:17:37.602Z,2.72
2022-10-03T01:20:20.593Z,2.85
2022-10-03T01:23:33.860Z,2.70
2022-10-03T01:26:17.337Z,2.90
2022-10-03T01:29:13.108Z,2.95
2022-10-03T01:31:51.951Z,2.88
2022-10-03T01:34:28.740Z,3.08
2022-10-03T01:37:07.847Z,2.80
2022-10-03T01:39:45.245Z,3.00
2022-10-03T01:42:23.132Z,3.17
2022-10-03T01:45:04.157Z,2.85
2022-10-03T01:47:42.066Z,2.88
2022-10-03T01:50:19.800Z,2.83
2022-10-03T01:53:03.219Z,2.90
2022-10-03T01:55:41.858Z,2.75
2022-10-03T01:58:14.378Z,2.88
2022-10-03T02:00:52.553Z,2.97
2022-10-03T02:03:25.913Z,2.83
2022-10-03T02:06:02.393Z,3.00
2022-10-03T02:08:45.654Z,3.13
2022-10-03T02:11:28.031Z,2.90
2022-10-03T02:14:02.041Z,3.17
2022-10-03T02:16:38.079Z,3.30
2022-10-03T02:19:19.785Z,3.38
2022-10-03T02:21:50.249Z,3.22
2022-10-03T02:24:42.791Z,3.20
2022-10-03T02:27:39.913Z,3.33
2022-10-03T02:30:15.700Z,3.25
2022-10-03T02:33:33.097Z,3.20
2022-10-03T02:37:02.388Z,3.50
2022-10-03T02:39:59.992Z,3.50
2022-10-03T02:43:02.908Z,3.50
2022-10-03T02:46:30.043Z,3.80
2022-10-03T02:49:39.968Z,3.90
2022-10-03T02:52:53.054Z,3.97
2022-10-03T02:55:57.249Z,4.00
2022-10-03T02:58:57.504Z,4.00
2022-10-03T03:01:55.952Z,4.10
2022-10-03T03:05:08.493Z,4.00
2022-10-03T03:07:59.626Z,4.25
2022-10-03T03:11:08.771Z,4.75
2022-10-03T03:14:13.758Z,4.53
2022-10-03T03:17:01.080Z,4.20
2022-10-03T03:19:52.630Z,4.50
2022-10-03T03:22:39.879Z,4.70
2022-10-03T03:25:34.603Z,5.05
2022-10-03T03:28:14.990Z,4.32
2022-10-03T03:30:54.757Z,4.55
2022-10-03T03:33:30.125Z,4.78
2022-10-03T03:36:10.452Z,4.72
2022-10-03T03:38:50.945Z,5.07
2022-10-03T03:41:39.123Z,4.90
2022-10-03T03:44:35.073Z,5.15
2022-10-03T03:47:20.618Z,4.90
2022-10-03T03:50:08.224Z,5.05
2022-10-03T03:52:58.785Z,5.50
2022-10-03T03:55:48.728Z,5.03
2022-10-03T03:58:33.302Z,5.07
2022-10-03T04:01:21.425Z,5.43
2022-10-03T04:04:02.063Z,5.90
2022-10-03T04:06:46.339Z,5.85
2022-10-03T04:09:46.000Z,6.07
2022-10-03T04:12:31.501Z,5.65
2022-10-03T04:15:27.377Z,5.72
2022-10-03T04:18:32.065Z,5.70
2022-10-03T04:21:24.262Z,6.00
2022-10-03T04:24:06.873Z,6.38
2022-10-03T04:26:48.862Z,6.47
2022-10-03T04:29:40.787Z,6.28
2022-10-03T04:32:22.041Z,6.10
2022-10-03T04:35:06.030Z,6.47
2022-10-03T04:37:45.768Z,6.82
2022-10-03T04:40:28.709Z,6.50
2022-10-03T04:43:06.651Z,6.72
2022-10-03T04:45:49.510Z,7.18
2022-10-03T04:48:29.734Z,6.78
2022-10-03T04:51:12.914Z,6.50
2022-10-03T04:54:00.848Z,7.05
2022-10-03T04:56:44.376Z,6.35
2022-10-03T04:59:42.292Z,6.28
2022-10-03T05:02:24.500Z,6.65
2022-10-03T05:05:25.419Z,6.40
2022-10-03T05:08:01.932Z,5.82
2022-10-03T05:10:48.207Z,5.53
2022-10-03T05:13:25.596Z,5.90
2022-10-03T05:16:11.879Z,6.28
2022-10-03T05:18:47.574Z,6.25
2022-10-03T05:21:28.296Z,5.93
2022-10-03T05:24:03.947Z,5.93
2022-10-03T05:26:48.473Z,6.55
2022-10-03T05:29:38.568Z,5.70
2022-10-03T05:32:18.564Z,6.10
2022-10-03T05:35:10.145Z,5.68
2022-10-03T05:38:08.065Z,5.90
2022-10-03T05:40:39.156Z,5.60
2022-10-03T05:43:32.873Z,5.63
2022-10-03T05:46:14.674Z,5.78
2022-10-03T05:48:53.038Z,5.57
2022-10-03T05:51:47.942Z,5.40
2022-10-03T05:54:48.930Z,5.80
2022-10-03T05:58:01.221Z,5.30
2022-10-03T06:00:40.103Z,5.30
2022-10-03T06:03:35.846Z,5.20
2022-10-03T06:06:27.477Z,5.05
2022-10-03T06:09:26.460Z,5.43
2022-10-03T06:12:07.544Z,6.25
2022-10-03T06:14:51.454Z,10.00
2022-10-03T06:17:47.729Z,4.30
2022-10-03T06:20:54.320Z,4.35
2022-10-03T06:23:54.093Z,4.22
2022-10-03T06:26:45.094Z,4.13
2022-10-03T06:29:45.136Z,3.85
2022-10-03T06:32:41.602Z,4.00
2022-10-03T06:35:43.375Z,4.20
2022-10-03T06:38:39.860Z,3.53
2022-10-03T06:41:49.423Z,4.00
2022-10-03T06:44:32.470Z,4.10
2022-10-03T06:47:35.827Z,3.70
2022-10-03T06:50:47.429Z,3.65
2022-10-03T06:53:32.068Z,3.70
2022-10-03T06:56:47.650Z,3.70
2022-10-03T06:59:45.936Z,4.32
2022-10-03T07:02:51.972Z,3.63
2022-10-03T07:06:03.577Z,3.33
2022-10-03T07:08:53.429Z,3.40
2022-10-03T07:11:49.491Z,3.00
2022-10-03T07:14:45.845Z,3.47
2022-10-03T07:17:32.296Z,3.60
2022-10-03T07:20:31.680Z,3.20
2022-10-03T07:23:33.458Z,3.10
2022-10-03T07:26:26.452Z,3.13
2022-10-03T07:29:25.079Z,2.80
2022-10-03T07:32:12.170Z,2.53
2022-10-03T07:35:09.788Z,3.03
2022-10-03T07:38:24.110Z,2.80
2022-10-03T07:41:23.457Z,3.00
2022-10-03T07:44:40.227Z,3.00
2022-10-03T07:47:42.499Z,3.22
2022-10-03T07:50:39.844Z,3.20
2022-10-03T07:53:37.499Z,2.80
2022-10-03T07:56:23.721Z,2.67
2022-10-03T07:59:05.805Z,2.88
2022-10-03T08:04:53.030Z,2.80
2022-10-03T08:07:42.210Z,2.65
2022-10-03T08:10:47.635Z,2.90
2022-10-03T08:13:32.446Z,2.67
2022-10-03T08:16:24.958Z,2.55
2022-10-03T08:19:25.586Z,2.60
2022-10-03T08:22:07.605Z,2.70
2022-10-03T08:27:30.219Z,2.47
2022-10-03T08:30:14.291Z,2.53
2022-10-03T08:33:14.361Z,2.65
2022-10-03T08:36:19.429Z,2.45
2022-10-03T08:38:59.881Z,2.83
2022-10-03T08:42:18.707Z,2.60
2022-10-03T08:45:21.916Z,2.75
2022-10-03T08:48:36.938Z,2.83
2022-10-03T08:51:41.364Z,2.42
2022-10-03T08:54:38.586Z,2.63
2022-10-03T08:57:27.487Z,2.75
2022-10-03T09:00:07.150Z,6.13
2022-10-03T09:03:33.544Z,2.60
2022-10-03T09:10:13.703Z,2.35
2022-10-03T09:13:12.001Z,2.80
2022-10-03T09:16:08.393Z,2.42
2022-10-03T09:18:51.270Z,3.67
2022-10-03T09:22:08.838Z,2.10
2022-10-03T09:25:19.894Z,2.10
2022-10-03T09:28:29.475Z,2.40
2022-10-03T09:31:18.343Z,2.47
2022-10-03T09:34:26.845Z,2.42
2022-10-03T09:37:31.477Z,2.38
2022-10-03T09:40:57.480Z,2.50
2022-10-03T09:43:57.203Z,2.30
2022-10-03T09:46:38.395Z,2.40
2022-10-03T09:49:38.409Z,2.30
2022-10-03T09:52:25.910Z,2.28
2022-10-03T09:55:14.922Z,2.10
2022-10-03T09:58:27.151Z,2.35
2022-10-03T10:01:32.023Z,2.22
2022-10-03T10:04:54.234Z,2.30
2022-10-03T10:07:45.741Z,2.50
2022-10-03T10:10:45.147Z,2.30
2022-10-03T10:14:06.245Z,2.50
2022-10-03T10:16:48.364Z,2.20
2022-10-03T10:19:39.741Z,2.38
2022-10-03T10:22:52.148Z,2.20
2022-10-03T10:28:23.336Z,2.13
2022-10-03T10:31:26.850Z,2.50
2022-10-03T10:34:40.211Z,2.20
2022-10-03T10:37:47.943Z,2.30
2022-10-03T10:40:49.846Z,2.10
2022-10-03T10:43:58.395Z,2.30
2022-10-03T10:47:12.697Z,1.90
2022-10-03T10:50:18.364Z,2.17
2022-10-03T10:53:27.168Z,2.15
2022-10-03T10:56:35.001Z,2.17
2022-10-03T10:59:55.223Z,1.90
2022-10-03T11:03:08.677Z,2.00
2022-10-03T11:06:17.742Z,2.10
2022-10-03T11:09:18.368Z,1.90
2022-10-03T11:12:32.936Z,1.98
2022-10-03T11:15:43.455Z,2.25
2022-10-03T11:19:07.194Z,2.00
2022-10-03T11:22:11.805Z,2.40
2022-10-03T11:25:37.549Z,2.28
2022-10-03T11:28:46.545Z,1.95
2022-10-03T11:31:55.759Z,2.00
2022-10-03T11:34:57.952Z,2.13
2022-10-03T11:37:35.489Z,2.00
2022-10-03T11:40:32.503Z,1.90
2022-10-03T11:43:23.699Z,1.85
2022-10-03T11:45:57.454Z,2.10
2022-10-03T11:48:40.023Z,2.20
2022-10-03T11:51:12.141Z,2.35
2022-10-03T11:54:07.422Z,2.20
2022-10-03T11:56:46.010Z,1.90
2022-10-03T11:59:37.829Z,2.25
2022-10-03T12:02:16.171Z,2.13
2022-10-03T12:04:56.211Z,2.10
2022-10-03T12:08:04.588Z,1.80
2022-10-03T12:10:50.650Z,2.10
2022-10-03T12:13:31.810Z,2.33
2022-10-03T12:16:03.590Z,2.00
2022-10-03T12:18:50.991Z,1.90
2022-10-03T12:21:25.569Z,1.90
2022-10-03T12:24:24.287Z,2.00
2022-10-03T12:27:02.036Z,1.80
2022-10-03T12:29:35.991Z,2.22
2022-10-03T12:32:33.009Z,2.10
2022-10-03T12:35:17.348Z,1.90
2022-10-03T12:37:58.162Z,2.15
2022-10-03T12:40:31.892Z,1.95
2022-10-03T12:43:31.631Z,2.20
2022-10-03T12:46:03.594Z,1.90
2022-10-03T12:48:44.365Z,1.80
2022-10-03T12:51:24.004Z,2.00
2022-10-03T12:54:06.371Z,2.00
2022-10-03T12:56:45.497Z,2.00
2022-10-03T12:59:30.795Z,2.00
2022-10-03T13:02:21.478Z,2.05
2022-10-03T13:05:04.861Z,2.00
2022-10-03T13:07:43.678Z,2.03
2022-10-03T13:10:23.830Z,1.90
2022-10-03T13:12:58.106Z,1.80
2022-10-03T13:15:53.689Z,1.90
2022-10-03T13:18:43.009Z,1.98
2022-10-03T13:21:43.957Z,1.70
2022-10-03T13:24:07.766Z,1.90
2022-10-03T13:26:49.160Z,1.80
2022-10-03T13:29:26.017Z,2.10
2022-10-03T13:32:13.048Z,2.25
2022-10-03T13:35:19.385Z,2.00
2022-10-03T13:38:07.512Z,1.90
2022-10-03T13:40:43.432Z,2.10
2022-10-03T13:43:19.016Z,1.90
2022-10-03T13:45:51.421Z,2.05
2022-10-03T13:48:27.527Z,2.17
2022-10-03T13:51:02.424Z,2.40
2022-10-03T13:54:04.361Z,2.20
2022-10-03T13:56:55.697Z,2.00
2022-10-03T14:00:00.068Z,2.03
2022-10-03T14:02:47.936Z,1.90
2022-10-03T14:05:43.690Z,2.08
2022-10-03T14:08:25.872Z,2.00
2022-10-03T14:11:08.077Z,2.10
2022-10-03T14:13:48.358Z,2.30
2022-10-03T14:16:24.114Z,2.15
2022-10-03T14:19:00.185Z,1.80
2022-10-03T14:21:46.441Z,1.80
2022-10-03T14:24:29.605Z,1.90
2022-10-03T14:27:08.225Z,2.10
2022-10-03T14:29:46.977Z,2.20
2022-10-03T14:32:46.094Z,2.00
2022-10-03T14:35:28.084Z,1.98
2022-10-03T14:38:01.645Z,2.13
2022-10-03T14:40:39.029Z,2.58
2022-10-03T14:43:22.418Z,2.67
2022-10-03T14:45:53.805Z,2.95
2022-10-03T14:48:24.740Z,2.40
2022-10-03T14:50:57.097Z,2.17
2022-10-03T14:53:30.151Z,2.10
2022-10-03T14:56:03.207Z,2.13
2022-10-03T14:58:37.360Z,1.88
2022-10-03T15:01:13.848Z,2.35
2022-10-03T15:03:46.514Z,1.90
2022-10-03T15:06:23.362Z,1.70
2022-10-03T15:08:56.335Z,2.10
2022-10-03T15:11:32.525Z,1.90
2022-10-03T15:14:07.291Z,1.80
2022-10-03T15:16:42.138Z,1.73
2022-10-03T15:19:16.280Z,1.67
2022-10-03T15:21:46.968Z,1.70
2022-10-03T15:24:25.052Z,1.80
2022-10-03T15:27:02.969Z,1.92
2022-10-03T15:29:32.643Z,1.70
2022-10-03T15:32:04.395Z,1.80
2022-10-03T15:34:42.409Z,1.90
2022-10-03T15:37:22.248Z,1.80
2022-10-03T15:39:57.269Z,1.80
2022-10-03T15:42:32.722Z,1.70
2022-10-03T15:45:04.230Z,2.10
2022-10-03T15:47:35.071Z,1.80
2022-10-03T15:50:08.744Z,2.15
2022-10-03T15:52:41.612Z,2.03
2022-10-03T15:55:18.217Z,1.90
2022-10-03T15:57:55.980Z,2.00
2022-10-03T16:00:29.302Z,2.00
2022-10-03T16:03:10.113Z,1.85
2022-10-03T16:05:59.085Z,2.05
2022-10-03T16:08:33.706Z,2.00
2022-10-03T16:11:10.379Z,2.10
2022-10-03T16:13:44.481Z,2.00
2022-10-03T16:16:19.692Z,2.00
2022-10-03T16:19:07.771Z,1.90
2022-10-03T16:21:48.162Z,2.17
2022-10-03T16:24:36.468Z,2.10
2022-10-03T16:27:18.589Z,2.15
2022-10-03T16:29:58.867Z,2.10
2022-10-03T16:32:29.805Z,2.30
2022-10-03T16:35:03.522Z,2.20
2022-10-03T16:37:33.496Z,2.20
2022-10-03T16:40:05.656Z,2.30
2022-10-03T16:42:42.704Z,2.20
2022-10-03T16:45:23.857Z,2.30
2022-10-03T16:48:08.713Z,2.90
2022-10-03T16:50:48.715Z,2.53
2022-10-03T16:53:21.547Z,2.50
2022-10-03T16:55:59.247Z,2.40
2022-10-03T16:58:35.381Z,2.40
2022-10-03T17:01:27.037Z,2.40
2022-10-03T17:04:06.015Z,2.35
2022-10-03T17:06:39.073Z,2.47
2022-10-03T17:09:17.441Z,2.38
2022-10-03T17:11:51.663Z,2.55
2022-10-03T17:14:21.791Z,2.20
2022-10-03T17:17:03.043Z,2.28
2022-10-03T17:19:37.110Z,2.15
2022-10-03T17:22:14.602Z,2.20
2022-10-03T17:24:50.287Z,1.90
2022-10-03T17:27:25.780Z,2.30
2022-10-03T17:30:00.819Z,2.10
2022-10-03T17:32:37.014Z,2.00
2022-10-03T17:35:12.880Z,2.30
2022-10-03T17:38:48.254Z,2.30
2022-10-03T17:41:18.777Z,2.35
2022-10-03T17:43:51.664Z,2.30
2022-10-03T17:46:30.548Z,2.30
2022-10-03T17:49:08.496Z,2.10
2022-10-03T17:51:43.720Z,2.20
2022-10-03T17:54:15.481Z,2.30
2022-10-03T17:56:50.770Z,2.30
2022-10-03T17:59:25.028Z,2.20
2022-10-03T18:01:57.520Z,2.30
2022-10-03T18:04:35.225Z,2.05
2022-10-03T18:07:08.144Z,2.20
2022-10-03T18:09:42.890Z,2.10
2022-10-03T18:12:26.091Z,2.00
2022-10-03T18:15:18.140Z,2.00
2022-10-03T18:18:00.506Z,1.95
2022-10-03T18:20:50.346Z,1.90
2022-10-03T18:23:53.044Z,1.90
2022-10-03T18:26:28.935Z,2.00
2022-10-03T18:29:15.165Z,2.10
2022-10-03T18:31:47.457Z,1.90
2022-10-03T18:34:21.292Z,2.20
2022-10-03T18:36:55.128Z,2.17
2022-10-03T18:39:27.017Z,2.22
2022-10-03T18:41:59.304Z,2.28
2022-10-03T18:44:30.046Z,2.22
2022-10-03T18:47:17.487Z,2.00
2022-10-03T18:49:55.701Z,2.10
2022-10-03T18:52:34.296Z,2.03
2022-10-03T18:55:08.360Z,2.10
2022-10-03T18:57:45.546Z,2.20
2022-10-03T19:00:19.086Z,2.30
2022-10-03T19:02:54.868Z,2.60
2022-10-03T19:05:31.618Z,2.70
2022-10-03T19:08:11.898Z,2.30
2022-10-03T19:10:44.207Z,2.53
2022-10-03T19:13:28.871Z,2.38
2022-10-03T19:16:17.011Z,2.40
2022-10-03T19:19:00.222Z,2.50
2022-10-03T19:21:29.070Z,2.20
2022-10-03T19:24:06.049Z,2.30
2022-10-03T19:26:37.463Z,2.50
2022-10-03T19:29:11.023Z,2.55
2022-10-03T19:31:44.847Z,2.40
2022-10-03T19:34:19.620Z,2.83
2022-10-03T19:36:51.093Z,2.53
2022-10-03T19:39:23.458Z,2.35
2022-10-03T19:41:57.183Z,2.60
2022-10-03T19:44:30.597Z,2.60
2022-10-03T19:47:05.524Z,2.60
2022-10-03T19:49:45.877Z,3.03
2022-10-03T19:52:27.787Z,2.55
2022-10-03T19:55:03.613Z,2.60
2022-10-03T19:57:44.484Z,2.50
2022-10-03T20:00:28.433Z,2.78
2022-10-03T20:03:06.845Z,2.60
2022-10-03T20:05:43.249Z,2.58
2022-10-03T20:08:23.233Z,2.58
2022-10-03T20:11:17.078Z,2.50
2022-10-03T20:13:49.290Z,2.53
2022-10-03T20:16:20.049Z,2.70
2022-10-03T20:18:52.253Z,2.53
2022-10-03T20:21:23.978Z,3.10
2022-10-03T20:23:54.693Z,3.15
2022-10-03T20:26:33.730Z,2.70
2022-10-03T20:29:28.822Z,2.63
2022-10-03T20:32:01.962Z,2.70
2022-10-03T20:34:31.424Z,2.60
2022-10-03T20:37:20.904Z,2.80
2022-10-03T20:39:54.062Z,2.80
2022-10-03T20:42:29.900Z,3.08
2022-10-03T20:45:16.564Z,2.80
2022-10-03T20:47:55.834Z,2.88
2022-10-03T20:50:29.532Z,2.78
2022-10-03T20:53:00.709Z,2.83
2022-10-03T20:55:34.819Z,2.72
2022-10-03T20:58:16.412Z,2.53
2022-10-03T21:00:49.293Z,2.50
2022-10-03T21:03:28.742Z,2.55
2022-10-03T21:06:02.817Z,2.67
2022-10-03T21:08:36.632Z,2.42
2022-10-03T21:11:18.279Z,2.47
2022-10-03T21:13:57.001Z,2.60
2022-10-03T21:16:29.136Z,2.63
2022-10-03T21:19:02.654Z,2.83
2022-10-03T21:21:40.963Z,2.60
2022-10-03T21:24:16.425Z,2.60
2022-10-03T21:26:48.732Z,2.60
2022-10-03T21:29:30.546Z,2.58
2022-10-03T21:32:18.498Z,2.80
2022-10-03T21:34:55.507Z,2.70
2022-10-03T21:37:36.446Z,2.40
2022-10-03T21:40:19.550Z,2.97
2022-10-03T21:43:00.004Z,3.03
2022-10-03T21:45:40.586Z,2.90
2022-10-03T21:48:22.248Z,2.90
2022-10-03T21:50:54.815Z,2.70
2022-10-03T21:53:36.426Z,2.90
2022-10-03T21:56:20.498Z,2.80
2022-10-03T21:59:23.576Z,2.78
2022-10-03T22:01:59.970Z,2.90
2022-10-03T22:04:36.224Z,2.88
2022-10-03T22:07:13.990Z,2.83
2022-10-03T22:09:48.046Z,2.80
2022-10-03T22:12:18.146Z,2.60
2022-10-03T22:14:56.013Z,3.00
2022-10-03T22:17:35.761Z,2.90
2022-10-03T22:20:13.876Z,3.30
2022-10-03T22:22:56.191Z,2.80
2022-10-03T22:25:44.426Z,3.00
2022-10-03T22:28:21.014Z,2.72
2022-10-03T22:30:58.233Z,3.05
2022-10-03T22:33:39.576Z,2.75
2022-10-03T22:36:14.659Z,2.92
2022-10-03T22:38:46.622Z,3.10
2022-10-03T22:41:23.884Z,3.13
2022-10-03T22:43:53.575Z,3.08
2022-10-03T22:46:28.168Z,2.97
2022-10-03T22:49:05.700Z,3.10
2022-10-03T22:51:35.838Z,2.70
2022-10-03T22:54:10.589Z,3.00
2022-10-03T22:56:46.019Z,3.13
2022-10-03T22:59:19.826Z,2.90
2022-10-03T23:01:50.712Z,3.08
2022-10-03T23:04:47.571Z,3.00
2022-10-03T23:07:35.968Z,3.30
2022-10-03T23:10:19.952Z,3.40
2022-10-03T23:12:53.794Z,3.25
2022-10-03T23:15:24.365Z,3.50
2022-10-03T23:18:20.314Z,2.92
2022-10-03T23:21:06.874Z,3.72
2022-10-03T23:23:45.124Z,3.40
2022-10-03T23:26:57.150Z,3.60
2022-10-03T23:29:26.014Z,3.42
2022-10-03T23:32:06.530Z,3.33
2022-10-03T23:35:08.095Z,3.10
2022-10-03T23:37:48.298Z,3.22
2022-10-03T23:40:37.137Z,3.30
2022-10-03T23:43:24.305Z,3.30
2022-10-03T23:45:59.561Z,3.15
2022-10-03T23:48:41.742Z,3.00
2022-10-03T23:53:51.820Z,2.97
2022-10-03T23:56:35.984Z,3.20
2022-10-03T23:59:19.154Z,3.35
